sensor_id;sensor_type;location;lat;lon;timestamp;P1;durP1;ratioP1;P2;durP2;ratioP2
10894;SDS011;5500;49.886;8.074;2022-09-27T00:01:34;0.73;;;0.73;;
10894;SDS011;5500;49.886;8.074;2022-09-27T00:04:02;0.57;;;0.57;;
10894;SDS011;5500;49.886;8.074;2022-09-27T00:06:30;1.60;;;0.87;;
10894;SDS011;5500;49.886;8.074;2022-09-27T00:09:01;0.70;;;0.70;;
10894;SDS011;5500;49.886;8.074;2022-09-27T00:11:31;1.20;;;0.80;;
10894;SDS011;5500;49.886;8.074;2022-09-27T00:14:01;0.80;;;0.80;;
10894;SDS011;5500;49.886;8.074;2022-09-27T00:16:30;0.63;;;0.63;;
10894;SDS011;5500;49.886;8.074;2022-09-27T00:18:59;0.67;;;0.67;;
10894;SDS011;5500;49.886;8.074;2022-09-27T00:21:29;1.70;;;0.63;;
10894;SDS011;5500;49.886;8.074;2022-09-27T00:23:57;0.73;;;0.70;;
10894;SDS011;5500;49.886;8.074;2022-09-27T00:26:25;0.60;;;0.60;;
10894;SDS011;5500;49.886;8.074;2022-09-27T00:28:53;0.70;;;0.70;;
10894;SDS011;5500;49.886;8.074;2022-09-27T00:31:23;2.87;;;0.60;;
10894;SDS011;5500;49.886;8.074;2022-09-27T00:33:55;0.70;;;0.70;;
10894;SDS011;5500;49.886;8.074;2022-09-27T00:36:24;0.80;;;0.50;;
10894;SDS011;5500;49.886;8.074;2022-09-27T00:38:53;0.83;;;0.63;;
10894;SDS011;5500;49.886;8.074;2022-09-27T00:41:22;2.50;;;0.60;;
10894;SDS011;5500;49.886;8.074;2022-09-27T00:43:52;1.23;;;0.80;;
10894;SDS011;5500;49.886;8.074;2022-09-27T00:46:24;1.03;;;0.80;;
10894;SDS011;5500;49.886;8.074;2022-09-27T00:48:58;1.10;;;0.90;;
10894;SDS011;5500;49.886;8.074;2022-09-27T00:51:29;0.83;;;0.70;;
10894;SDS011;5500;49.886;8.074;2022-09-27T00:53:58;1.13;;;0.90;;
10894;SDS011;5500;49.886;8.074;2022-09-27T00:56:28;0.87;;;0.80;;
10894;SDS011;5500;49.886;8.074;2022-09-27T00:58:57;0.83;;;0.83;;
10894;SDS011;5500;49.886;8.074;2022-09-27T01:01:27;1.53;;;1.13;;
10894;SDS011;5500;49.886;8.074;2022-09-27T01:03:57;1.40;;;0.70;;
10894;SDS011;5500;49.886;8.074;2022-09-27T01:06:28;2.23;;;1.10;;
10894;SDS011;5500;49.886;8.074;2022-09-27T01:08:56;1.37;;;0.87;;
10894;SDS011;5500;49.886;8.074;2022-09-27T01:11:27;4.30;;;1.20;;
10894;SDS011;5500;49.886;8.074;2022-09-27T01:14:06;2.47;;;1.10;;
10894;SDS011;5500;49.886;8.074;2022-09-27T01:16:42;1.40;;;1.03;;
10894;SDS011;5500;49.886;8.074;2022-09-27T01:19:18;1.73;;;1.00;;
10894;SDS011;5500;49.886;8.074;2022-09-27T01:21:55;1.87;;;1.30;;
10894;SDS011;5500;49.886;8.074;2022-09-27T01:24:34;4.47;;;1.27;;
10894;SDS011;5500;49.886;8.074;2022-09-27T01:30:21;3.37;;;1.53;;
10894;SDS011;5500;49.886;8.074;2022-09-27T01:32:52;3.63;;;1.80;;
10894;SDS011;5500;49.886;8.074;2022-09-27T01:35:24;5.63;;;1.60;;
10894;SDS011;5500;49.886;8.074;2022-09-27T01:38:00;2.23;;;1.50;;
10894;SDS011;5500;49.886;8.074;2022-09-27T01:40:35;4.23;;;1.60;;
10894;SDS011;5500;49.886;8.074;2022-09-27T01:43:08;3.87;;;1.60;;
10894;SDS011;5500;49.886;8.074;2022-09-27T01:45:41;9.97;;;2.00;;
10894;SDS011;5500;49.886;8.074;2022-09-27T01:48:11;2.83;;;1.30;;
10894;SDS011;5500;49.886;8.074;2022-09-27T01:50:43;3.93;;;1.80;;
10894;SDS011;5500;49.886;8.074;2022-09-27T01:53:16;6.53;;;1.87;;
10894;SDS011;5500;49.886;8.074;2022-09-27T01:55:45;3.07;;;1.23;;
10894;SDS011;5500;49.886;8.074;2022-09-27T01:58:16;3.53;;;1.50;;
10894;SDS011;5500;49.886;8.074;2022-09-27T02:00:48;3.90;;;1.57;;
10894;SDS011;5500;49.886;8.074;2022-09-27T02:03:17;4.23;;;1.57;;
10894;SDS011;5500;49.886;8.074;2022-09-27T02:05:49;3.67;;;1.77;;
10894;SDS011;5500;49.886;8.074;2022-09-27T02:08:20;3.40;;;1.53;;
10894;SDS011;5500;49.886;8.074;2022-09-27T02:10:54;2.30;;;1.30;;
10894;SDS011;5500;49.886;8.074;2022-09-27T02:13:25;3.27;;;1.63;;
10894;SDS011;5500;49.886;8.074;2022-09-27T02:16:01;1.83;;;1.47;;
10894;SDS011;5500;49.886;8.074;2022-09-27T02:18:33;2.47;;;1.13;;
10894;SDS011;5500;49.886;8.074;2022-09-27T02:21:04;4.60;;;2.03;;
10894;SDS011;5500;49.886;8.074;2022-09-27T02:23:34;4.23;;;1.33;;
10894;SDS011;5500;49.886;8.074;2022-09-27T02:26:08;4.53;;;1.87;;
10894;SDS011;5500;49.886;8.074;2022-09-27T02:28:40;4.27;;;1.53;;
10894;SDS011;5500;49.886;8.074;2022-09-27T02:31:11;2.80;;;1.30;;
10894;SDS011;5500;49.886;8.074;2022-09-27T02:33:39;6.50;;;1.83;;
10894;SDS011;5500;49.886;8.074;2022-09-27T02:36:10;3.37;;;1.40;;
10894;SDS011;5500;49.886;8.074;2022-09-27T02:38:37;2.93;;;1.20;;
10894;SDS011;5500;49.886;8.074;2022-09-27T02:41:11;2.27;;;0.90;;
10894;SDS011;5500;49.886;8.074;2022-09-27T02:43:39;0.80;;;0.63;;
10894;SDS011;5500;49.886;8.074;2022-09-27T02:46:13;1.80;;;0.80;;
10894;SDS011;5500;49.886;8.074;2022-09-27T02:48:50;2.47;;;1.03;;
10894;SDS011;5500;49.886;8.074;2022-09-27T02:51:27;1.47;;;0.70;;
10894;SDS011;5500;49.886;8.074;2022-09-27T02:54:06;0.67;;;0.40;;
10894;SDS011;5500;49.886;8.074;2022-09-27T02:56:43;0.63;;;0.40;;
10894;SDS011;5500;49.886;8.074;2022-09-27T02:59:19;0.70;;;0.70;;
10894;SDS011;5500;49.886;8.074;2022-09-27T03:02:00;0.67;;;0.60;;
10894;SDS011;5500;49.886;8.074;2022-09-27T03:04:39;1.37;;;0.30;;
10894;SDS011;5500;49.886;8.074;2022-09-27T03:07:10;0.53;;;0.50;;
10894;SDS011;5500;49.886;8.074;2022-09-27T03:09:40;0.47;;;0.47;;
10894;SDS011;5500;49.886;8.074;2022-09-27T03:12:09;0.50;;;0.50;;
10894;SDS011;5500;49.886;8.074;2022-09-27T03:14:37;0.33;;;0.33;;
10894;SDS011;5500;49.886;8.074;2022-09-27T03:17:06;0.80;;;0.60;;
10894;SDS011;5500;49.886;8.074;2022-09-27T03:19:33;0.63;;;0.50;;
10894;SDS011;5500;49.886;8.074;2022-09-27T03:22:01;0.30;;;0.30;;
10894;SDS011;5500;49.886;8.074;2022-09-27T03:24:29;1.93;;;0.60;;
10894;SDS011;5500;49.886;8.074;2022-09-27T03:26:57;0.20;;;0.20;;
10894;SDS011;5500;49.886;8.074;2022-09-27T03:29:24;2.10;;;0.80;;
10894;SDS011;5500;49.886;8.074;2022-09-27T03:31:52;0.40;;;0.40;;
10894;SDS011;5500;49.886;8.074;2022-09-27T03:34:21;0.47;;;0.40;;
10894;SDS011;5500;49.886;8.074;2022-09-27T03:36:50;1.03;;;0.60;;
10894;SDS011;5500;49.886;8.074;2022-09-27T03:39:18;0.97;;;0.40;;
10894;SDS011;5500;49.886;8.074;2022-09-27T03:41:45;0.67;;;0.60;;
10894;SDS011;5500;49.886;8.074;2022-09-27T03:44:13;1.00;;;0.60;;
10894;SDS011;5500;49.886;8.074;2022-09-27T03:46:41;1.33;;;0.70;;
10894;SDS011;5500;49.886;8.074;2022-09-27T03:49:09;0.50;;;0.50;;
10894;SDS011;5500;49.886;8.074;2022-09-27T03:51:38;0.30;;;0.30;;
10894;SDS011;5500;49.886;8.074;2022-09-27T03:54:06;4.83;;;0.70;;
10894;SDS011;5500;49.886;8.074;2022-09-27T03:56:34;1.53;;;0.50;;
10894;SDS011;5500;49.886;8.074;2022-09-27T03:59:01;0.40;;;0.40;;
10894;SDS011;5500;49.886;8.074;2022-09-27T04:01:29;1.17;;;0.80;;
10894;SDS011;5500;49.886;8.074;2022-09-27T04:03:57;2.23;;;0.73;;
10894;SDS011;5500;49.886;8.074;2022-09-27T04:06:25;1.07;;;0.97;;
10894;SDS011;5500;49.886;8.074;2022-09-27T04:08:54;0.80;;;0.70;;
10894;SDS011;5500;49.886;8.074;2022-09-27T04:11:22;0.97;;;0.90;;
10894;SDS011;5500;49.886;8.074;2022-09-27T04:13:49;1.17;;;0.70;;
10894;SDS011;5500;49.886;8.074;2022-09-27T04:16:17;0.60;;;0.60;;
10894;SDS011;5500;49.886;8.074;2022-09-27T04:18:45;2.07;;;1.00;;
10894;SDS011;5500;49.886;8.074;2022-09-27T04:21:13;0.70;;;0.70;;
10894;SDS011;5500;49.886;8.074;2022-09-27T04:23:41;0.80;;;0.33;;
10894;SDS011;5500;49.886;8.074;2022-09-27T04:26:10;1.10;;;0.60;;
10894;SDS011;5500;49.886;8.074;2022-09-27T04:28:38;1.10;;;0.63;;
10894;SDS011;5500;49.886;8.074;2022-09-27T04:31:06;1.43;;;0.70;;
10894;SDS011;5500;49.886;8.074;2022-09-27T04:33:34;5.10;;;1.20;;
10894;SDS011;5500;49.886;8.074;2022-09-27T04:36:02;1.43;;;0.80;;
10894;SDS011;5500;49.886;8.074;2022-09-27T04:38:47;1.17;;;0.73;;
10894;SDS011;5500;49.886;8.074;2022-09-27T04:41:16;2.17;;;0.77;;
10894;SDS011;5500;49.886;8.074;2022-09-27T04:43:44;0.60;;;0.60;;
10894;SDS011;5500;49.886;8.074;2022-09-27T04:46:11;0.60;;;0.60;;
10894;SDS011;5500;49.886;8.074;2022-09-27T04:48:40;0.50;;;0.50;;
10894;SDS011;5500;49.886;8.074;2022-09-27T04:51:08;0.50;;;0.40;;
10894;SDS011;5500;49.886;8.074;2022-09-27T04:53:36;1.10;;;0.70;;
10894;SDS011;5500;49.886;8.074;2022-09-27T04:56:04;1.33;;;0.50;;
10894;SDS011;5500;49.886;8.074;2022-09-27T04:58:33;0.70;;;0.70;;
10894;SDS011;5500;49.886;8.074;2022-09-27T05:01:01;0.73;;;0.73;;
10894;SDS011;5500;49.886;8.074;2022-09-27T05:03:29;0.53;;;0.53;;
10894;SDS011;5500;49.886;8.074;2022-09-27T05:05:57;0.97;;;0.67;;
10894;SDS011;5500;49.886;8.074;2022-09-27T05:08:25;1.50;;;0.70;;
10894;SDS011;5500;49.886;8.074;2022-09-27T05:10:53;1.07;;;0.80;;
10894;SDS011;5500;49.886;8.074;2022-09-27T05:13:21;1.77;;;0.80;;
10894;SDS011;5500;49.886;8.074;2022-09-27T05:15:50;1.03;;;0.50;;
10894;SDS011;5500;49.886;8.074;2022-09-27T05:18:18;1.60;;;0.80;;
10894;SDS011;5500;49.886;8.074;2022-09-27T05:20:46;1.03;;;0.77;;
10894;SDS011;5500;49.886;8.074;2022-09-27T05:23:14;14.70;;;1.17;;
10894;SDS011;5500;49.886;8.074;2022-09-27T05:25:41;2.03;;;0.60;;
10894;SDS011;5500;49.886;8.074;2022-09-27T05:28:09;2.27;;;0.70;;
10894;SDS011;5500;49.886;8.074;2022-09-27T05:30:37;0.77;;;0.77;;
10894;SDS011;5500;49.886;8.074;2022-09-27T05:33:06;1.03;;;0.77;;
10894;SDS011;5500;49.886;8.074;2022-09-27T05:35:34;2.07;;;1.03;;
10894;SDS011;5500;49.886;8.074;2022-09-27T05:38:02;2.40;;;0.67;;
10894;SDS011;5500;49.886;8.074;2022-09-27T05:40:29;0.67;;;0.67;;
10894;SDS011;5500;49.886;8.074;2022-09-27T05:43:12;0.70;;;0.53;;
10894;SDS011;5500;49.886;8.074;2022-09-27T05:45:41;0.67;;;0.60;;
10894;SDS011;5500;49.886;8.074;2022-09-27T05:48:10;0.60;;;0.60;;
10894;SDS011;5500;49.886;8.074;2022-09-27T05:50:39;1.83;;;0.60;;
10894;SDS011;5500;49.886;8.074;2022-09-27T05:53:07;0.37;;;0.37;;
10894;SDS011;5500;49.886;8.074;2022-09-27T05:55:36;0.30;;;0.30;;
10894;SDS011;5500;49.886;8.074;2022-09-27T05:58:04;1.80;;;0.70;;
10894;SDS011;5500;49.886;8.074;2022-09-27T06:00:33;1.90;;;0.50;;
10894;SDS011;5500;49.886;8.074;2022-09-27T06:03:02;1.03;;;0.40;;
10894;SDS011;5500;49.886;8.074;2022-09-27T06:05:33;0.63;;;0.50;;
10894;SDS011;5500;49.886;8.074;2022-09-27T06:08:03;1.57;;;0.90;;
10894;SDS011;5500;49.886;8.074;2022-09-27T06:10:31;1.73;;;0.73;;
10894;SDS011;5500;49.886;8.074;2022-09-27T06:13:01;2.60;;;0.67;;
10894;SDS011;5500;49.886;8.074;2022-09-27T06:15:30;0.77;;;0.63;;
10894;SDS011;5500;49.886;8.074;2022-09-27T06:18:01;0.40;;;0.40;;
10894;SDS011;5500;49.886;8.074;2022-09-27T06:20:31;1.67;;;0.40;;
10894;SDS011;5500;49.886;8.074;2022-09-27T06:23:03;5.00;;;0.63;;
10894;SDS011;5500;49.886;8.074;2022-09-27T06:25:32;0.70;;;0.50;;
10894;SDS011;5500;49.886;8.074;2022-09-27T06:28:00;0.63;;;0.53;;
10894;SDS011;5500;49.886;8.074;2022-09-27T06:30:28;0.40;;;0.40;;
10894;SDS011;5500;49.886;8.074;2022-09-27T06:32:58;1.40;;;0.50;;
10894;SDS011;5500;49.886;8.074;2022-09-27T06:35:27;0.40;;;0.40;;
10894;SDS011;5500;49.886;8.074;2022-09-27T06:37:57;0.33;;;0.33;;
10894;SDS011;5500;49.886;8.074;2022-09-27T06:40:29;0.30;;;0.30;;
10894;SDS011;5500;49.886;8.074;2022-09-27T06:43:00;0.50;;;0.40;;
10894;SDS011;5500;49.886;8.074;2022-09-27T06:45:28;0.83;;;0.50;;
10894;SDS011;5500;49.886;8.074;2022-09-27T06:47:56;0.27;;;0.27;;
10894;SDS011;5500;49.886;8.074;2022-09-27T06:50:24;0.33;;;0.30;;
10894;SDS011;5500;49.886;8.074;2022-09-27T06:52:52;2.40;;;0.60;;
10894;SDS011;5500;49.886;8.074;2022-09-27T06:55:21;0.87;;;0.50;;
10894;SDS011;5500;49.886;8.074;2022-09-27T06:57:53;0.73;;;0.73;;
10894;SDS011;5500;49.886;8.074;2022-09-27T07:00:38;0.90;;;0.33;;
10894;SDS011;5500;49.886;8.074;2022-09-27T07:03:07;0.73;;;0.20;;
10894;SDS011;5500;49.886;8.074;2022-09-27T07:05:36;0.40;;;0.40;;
10894;SDS011;5500;49.886;8.074;2022-09-27T07:08:04;0.73;;;0.50;;
10894;SDS011;5500;49.886;8.074;2022-09-27T07:10:34;0.50;;;0.37;;
10894;SDS011;5500;49.886;8.074;2022-09-27T07:13:03;0.60;;;0.50;;
10894;SDS011;5500;49.886;8.074;2022-09-27T07:15:32;0.57;;;0.57;;
10894;SDS011;5500;49.886;8.074;2022-09-27T07:18:02;1.60;;;0.30;;
10894;SDS011;5500;49.886;8.074;2022-09-27T07:20:31;0.70;;;0.47;;
10894;SDS011;5500;49.886;8.074;2022-09-27T07:23:02;0.47;;;0.47;;
10894;SDS011;5500;49.886;8.074;2022-09-27T07:25:30;1.40;;;0.50;;
10894;SDS011;5500;49.886;8.074;2022-09-27T07:28:01;0.80;;;0.70;;
10894;SDS011;5500;49.886;8.074;2022-09-27T07:30:29;0.83;;;0.63;;
10894;SDS011;5500;49.886;8.074;2022-09-27T07:32:57;0.70;;;0.70;;
10894;SDS011;5500;49.886;8.074;2022-09-27T07:35:25;2.47;;;0.60;;
10894;SDS011;5500;49.886;8.074;2022-09-27T07:37:54;0.60;;;0.50;;
10894;SDS011;5500;49.886;8.074;2022-09-27T07:40:22;0.40;;;0.30;;
10894;SDS011;5500;49.886;8.074;2022-09-27T07:42:53;1.57;;;0.87;;
10894;SDS011;5500;49.886;8.074;2022-09-27T07:45:22;1.80;;;0.60;;
10894;SDS011;5500;49.886;8.074;2022-09-27T07:47:50;0.70;;;0.70;;
10894;SDS011;5500;49.886;8.074;2022-09-27T07:50:18;1.90;;;0.63;;
10894;SDS011;5500;49.886;8.074;2022-09-27T07:52:47;0.70;;;0.60;;
10894;SDS011;5500;49.886;8.074;2022-09-27T07:55:16;0.73;;;0.60;;
10894;SDS011;5500;49.886;8.074;2022-09-27T07:57:44;0.60;;;0.40;;
10894;SDS011;5500;49.886;8.074;2022-09-27T08:00:13;0.23;;;0.23;;
10894;SDS011;5500;49.886;8.074;2022-09-27T08:02:43;1.33;;;0.60;;
10894;SDS011;5500;49.886;8.074;2022-09-27T08:05:11;0.47;;;0.47;;
10894;SDS011;5500;49.886;8.074;2022-09-27T08:07:39;1.17;;;0.57;;
10894;SDS011;5500;49.886;8.074;2022-09-27T08:10:07;2.10;;;0.70;;
10894;SDS011;5500;49.886;8.074;2022-09-27T08:12:35;1.27;;;0.43;;
10894;SDS011;5500;49.886;8.074;2022-09-27T08:15:04;0.73;;;0.60;;
10894;SDS011;5500;49.886;8.074;2022-09-27T08:17:32;0.30;;;0.30;;
10894;SDS011;5500;49.886;8.074;2022-09-27T08:20:01;0.67;;;0.40;;
10894;SDS011;5500;49.886;8.074;2022-09-27T08:22:32;1.70;;;0.50;;
10894;SDS011;5500;49.886;8.074;2022-09-27T08:24:59;0.40;;;0.40;;
10894;SDS011;5500;49.886;8.074;2022-09-27T08:27:27;0.43;;;0.43;;
10894;SDS011;5500;49.886;8.074;2022-09-27T08:29:54;0.73;;;0.63;;
10894;SDS011;5500;49.886;8.074;2022-09-27T08:32:22;1.80;;;0.60;;
10894;SDS011;5500;49.886;8.074;2022-09-27T08:34:50;1.20;;;0.60;;
10894;SDS011;5500;49.886;8.074;2022-09-27T08:37:19;1.00;;;0.60;;
10894;SDS011;5500;49.886;8.074;2022-09-27T08:39:47;2.60;;;0.53;;
10894;SDS011;5500;49.886;8.074;2022-09-27T08:42:18;0.77;;;0.43;;
10894;SDS011;5500;49.886;8.074;2022-09-27T08:44:53;0.57;;;0.50;;
10894;SDS011;5500;49.886;8.074;2022-09-27T08:47:30;0.40;;;0.23;;
10894;SDS011;5500;49.886;8.074;2022-09-27T08:50:02;1.30;;;0.63;;
10894;SDS011;5500;49.886;8.074;2022-09-27T08:52:34;0.57;;;0.57;;
10894;SDS011;5500;49.886;8.074;2022-09-27T08:55:05;0.73;;;0.50;;
10894;SDS011;5500;49.886;8.074;2022-09-27T08:57:40;0.57;;;0.43;;
10894;SDS011;5500;49.886;8.074;2022-09-27T09:00:09;1.00;;;0.43;;
10894;SDS011;5500;49.886;8.074;2022-09-27T09:02:39;0.40;;;0.30;;
10894;SDS011;5500;49.886;8.074;2022-09-27T09:05:08;1.17;;;0.50;;
10894;SDS011;5500;49.886;8.074;2022-09-27T09:07:45;0.53;;;0.50;;
10894;SDS011;5500;49.886;8.074;2022-09-27T09:10:28;0.40;;;0.33;;
10894;SDS011;5500;49.886;8.074;2022-09-27T09:13:21;1.97;;;0.93;;
10894;SDS011;5500;49.886;8.074;2022-09-27T09:15:58;0.93;;;0.33;;
10894;SDS011;5500;49.886;8.074;2022-09-27T09:18:31;0.50;;;0.30;;
10894;SDS011;5500;49.886;8.074;2022-09-27T09:21:04;2.23;;;0.50;;
10894;SDS011;5500;49.886;8.074;2022-09-27T09:23:49;1.00;;;0.50;;
10894;SDS011;5500;49.886;8.074;2022-09-27T09:26:43;0.50;;;0.40;;
10894;SDS011;5500;49.886;8.074;2022-09-27T09:29:19;0.97;;;0.40;;
10894;SDS011;5500;49.886;8.074;2022-09-27T09:31:56;0.33;;;0.30;;
10894;SDS011;5500;49.886;8.074;2022-09-27T09:34:27;0.47;;;0.47;;
10894;SDS011;5500;49.886;8.074;2022-09-27T09:36:56;0.40;;;0.40;;
10894;SDS011;5500;49.886;8.074;2022-09-27T09:39:29;2.60;;;0.50;;
10894;SDS011;5500;49.886;8.074;2022-09-27T09:42:03;0.30;;;0.30;;
10894;SDS011;5500;49.886;8.074;2022-09-27T09:44:37;0.17;;;0.17;;
10894;SDS011;5500;49.886;8.074;2022-09-27T09:47:13;0.30;;;0.30;;
10894;SDS011;5500;49.886;8.074;2022-09-27T09:49:46;0.73;;;0.30;;
10894;SDS011;5500;49.886;8.074;2022-09-27T09:52:18;0.30;;;0.30;;
10894;SDS011;5500;49.886;8.074;2022-09-27T09:54:49;0.50;;;0.50;;
10894;SDS011;5500;49.886;8.074;2022-09-27T09:57:19;1.13;;;0.40;;
10894;SDS011;5500;49.886;8.074;2022-09-27T09:59:50;0.30;;;0.30;;
10894;SDS011;5500;49.886;8.074;2022-09-27T10:02:24;0.33;;;0.20;;
10894;SDS011;5500;49.886;8.074;2022-09-27T10:04:54;0.50;;;0.50;;
10894;SDS011;5500;49.886;8.074;2022-09-27T10:07:22;0.60;;;0.50;;
10894;SDS011;5500;49.886;8.074;2022-09-27T10:09:52;2.60;;;0.70;;
10894;SDS011;5500;49.886;8.074;2022-09-27T10:12:21;0.77;;;0.77;;
10894;SDS011;5500;49.886;8.074;2022-09-27T10:14:49;0.30;;;0.30;;
10894;SDS011;5500;49.886;8.074;2022-09-27T10:17:19;1.20;;;0.70;;
10894;SDS011;5500;49.886;8.074;2022-09-27T10:19:48;0.80;;;0.80;;
10894;SDS011;5500;49.886;8.074;2022-09-27T10:22:18;2.20;;;0.70;;
10894;SDS011;5500;49.886;8.074;2022-09-27T10:24:55;0.67;;;0.67;;
10894;SDS011;5500;49.886;8.074;2022-09-27T10:27:24;0.77;;;0.60;;
10894;SDS011;5500;49.886;8.074;2022-09-27T10:29:56;1.90;;;0.73;;
10894;SDS011;5500;49.886;8.074;2022-09-27T10:32:25;0.60;;;0.60;;
10894;SDS011;5500;49.886;8.074;2022-09-27T10:37:49;1.80;;;0.73;;
10894;SDS011;5500;49.886;8.074;2022-09-27T10:40:26;3.37;;;1.10;;
10894;SDS011;5500;49.886;8.074;2022-09-27T10:42:55;1.53;;;0.87;;
10894;SDS011;5500;49.886;8.074;2022-09-27T10:45:27;2.50;;;0.90;;
10894;SDS011;5500;49.886;8.074;2022-09-27T10:47:56;1.03;;;0.90;;
10894;SDS011;5500;49.886;8.074;2022-09-27T10:50:25;1.00;;;0.90;;
10894;SDS011;5500;49.886;8.074;2022-09-27T10:53:14;1.67;;;1.03;;
10894;SDS011;5500;49.886;8.074;2022-09-27T10:55:47;2.00;;;1.27;;
10894;SDS011;5500;49.886;8.074;2022-09-27T10:58:16;1.47;;;0.90;;
10894;SDS011;5500;49.886;8.074;2022-09-27T11:00:53;1.60;;;0.93;;
10894;SDS011;5500;49.886;8.074;2022-09-27T11:03:23;2.50;;;0.93;;
10894;SDS011;5500;49.886;8.074;2022-09-27T11:05:54;1.40;;;1.03;;
10894;SDS011;5500;49.886;8.074;2022-09-27T11:08:23;2.43;;;1.20;;
10894;SDS011;5500;49.886;8.074;2022-09-27T11:11:04;2.57;;;1.27;;
10894;SDS011;5500;49.886;8.074;2022-09-27T11:13:33;1.60;;;0.87;;
10894;SDS011;5500;49.886;8.074;2022-09-27T11:16:08;2.43;;;1.20;;
10894;SDS011;5500;49.886;8.074;2022-09-27T11:18:44;1.97;;;1.20;;
10894;SDS011;5500;49.886;8.074;2022-09-27T11:21:18;1.33;;;1.03;;
10894;SDS011;5500;49.886;8.074;2022-09-27T11:23:59;3.80;;;1.23;;
10894;SDS011;5500;49.886;8.074;2022-09-27T11:26:39;2.90;;;1.37;;
10894;SDS011;5500;49.886;8.074;2022-09-27T11:29:17;1.97;;;0.93;;
10894;SDS011;5500;49.886;8.074;2022-09-27T11:31:55;2.10;;;0.70;;
10894;SDS011;5500;49.886;8.074;2022-09-27T11:34:35;1.93;;;1.10;;
10894;SDS011;5500;49.886;8.074;2022-09-27T11:37:12;5.80;;;1.10;;
10894;SDS011;5500;49.886;8.074;2022-09-27T11:39:47;3.07;;;1.10;;
10894;SDS011;5500;49.886;8.074;2022-09-27T11:42:27;3.73;;;1.30;;
10894;SDS011;5500;49.886;8.074;2022-09-27T11:45:16;3.00;;;1.10;;
10894;SDS011;5500;49.886;8.074;2022-09-27T11:48:13;3.17;;;2.20;;
10894;SDS011;5500;49.886;8.074;2022-09-27T11:50:54;3.27;;;2.03;;
10894;SDS011;5500;49.886;8.074;2022-09-27T11:53:29;2.30;;;1.57;;
10894;SDS011;5500;49.886;8.074;2022-09-27T11:56:04;3.30;;;1.73;;
10894;SDS011;5500;49.886;8.074;2022-09-27T11:58:53;2.67;;;1.50;;
10894;SDS011;5500;49.886;8.074;2022-09-27T12:01:28;2.57;;;1.03;;
10894;SDS011;5500;49.886;8.074;2022-09-27T12:04:06;1.57;;;1.13;;
10894;SDS011;5500;49.886;8.074;2022-09-27T12:06:46;2.10;;;0.80;;
10894;SDS011;5500;49.886;8.074;2022-09-27T12:09:17;1.63;;;1.20;;
10894;SDS011;5500;49.886;8.074;2022-09-27T12:11:47;2.17;;;1.20;;
10894;SDS011;5500;49.886;8.074;2022-09-27T12:14:19;2.70;;;1.30;;
10894;SDS011;5500;49.886;8.074;2022-09-27T12:16:52;5.87;;;2.00;;
10894;SDS011;5500;49.886;8.074;2022-09-27T12:19:21;1.83;;;0.90;;
10894;SDS011;5500;49.886;8.074;2022-09-27T12:21:50;2.17;;;0.90;;
10894;SDS011;5500;49.886;8.074;2022-09-27T12:24:19;1.43;;;0.97;;
10894;SDS011;5500;49.886;8.074;2022-09-27T12:26:48;2.07;;;1.17;;
10894;SDS011;5500;49.886;8.074;2022-09-27T12:29:19;1.27;;;1.10;;
10894;SDS011;5500;49.886;8.074;2022-09-27T12:31:50;1.10;;;0.90;;
10894;SDS011;5500;49.886;8.074;2022-09-27T12:34:24;1.60;;;0.80;;
10894;SDS011;5500;49.886;8.074;2022-09-27T12:36:58;2.60;;;1.10;;
10894;SDS011;5500;49.886;8.074;2022-09-27T12:39:31;2.03;;;0.80;;
10894;SDS011;5500;49.886;8.074;2022-09-27T12:42:11;0.90;;;0.60;;
10894;SDS011;5500;49.886;8.074;2022-09-27T12:44:42;0.77;;;0.60;;
10894;SDS011;5500;49.886;8.074;2022-09-27T12:47:20;1.83;;;0.80;;
10894;SDS011;5500;49.886;8.074;2022-09-27T12:50:02;1.00;;;0.70;;
10894;SDS011;5500;49.886;8.074;2022-09-27T12:52:33;1.50;;;0.77;;
10894;SDS011;5500;49.886;8.074;2022-09-27T12:55:07;1.50;;;0.80;;
10894;SDS011;5500;49.886;8.074;2022-09-27T12:57:57;3.33;;;0.83;;
10894;SDS011;5500;49.886;8.074;2022-09-27T13:00:46;1.37;;;0.90;;
10894;SDS011;5500;49.886;8.074;2022-09-27T13:03:25;1.10;;;0.97;;
10894;SDS011;5500;49.886;8.074;2022-09-27T13:09:15;1.50;;;1.30;;
10894;SDS011;5500;49.886;8.074;2022-09-27T13:11:51;3.87;;;2.43;;
10894;SDS011;5500;49.886;8.074;2022-09-27T13:14:26;2.40;;;2.00;;
10894;SDS011;5500;49.886;8.074;2022-09-27T13:16:58;2.73;;;1.90;;
10894;SDS011;5500;49.886;8.074;2022-09-27T13:19:39;3.60;;;2.03;;
10894;SDS011;5500;49.886;8.074;2022-09-27T13:22:08;2.23;;;2.00;;
10894;SDS011;5500;49.886;8.074;2022-09-27T13:24:44;2.97;;;2.40;;
10894;SDS011;5500;49.886;8.074;2022-09-27T13:27:33;6.40;;;3.60;;
10894;SDS011;5500;49.886;8.074;2022-09-27T13:33:31;2.90;;;1.40;;
10894;SDS011;5500;49.886;8.074;2022-09-27T13:36:17;4.40;;;1.30;;
10894;SDS011;5500;49.886;8.074;2022-09-27T13:38:51;1.73;;;1.13;;
10894;SDS011;5500;49.886;8.074;2022-09-27T13:41:22;3.97;;;1.67;;
10894;SDS011;5500;49.886;8.074;2022-09-27T13:43:56;4.27;;;2.40;;
10894;SDS011;5500;49.886;8.074;2022-09-27T13:46:30;2.67;;;1.70;;
10894;SDS011;5500;49.886;8.074;2022-09-27T13:49:02;1.53;;;0.93;;
10894;SDS011;5500;49.886;8.074;2022-09-27T13:51:35;3.50;;;1.10;;
10894;SDS011;5500;49.886;8.074;2022-09-27T13:54:34;1.87;;;1.10;;
10894;SDS011;5500;49.886;8.074;2022-09-27T13:57:04;0.80;;;0.80;;
10894;SDS011;5500;49.886;8.074;2022-09-27T13:59:35;1.23;;;0.83;;
10894;SDS011;5500;49.886;8.074;2022-09-27T14:02:11;1.23;;;1.10;;
10894;SDS011;5500;49.886;8.074;2022-09-27T14:04:42;3.50;;;1.13;;
10894;SDS011;5500;49.886;8.074;2022-09-27T14:07:14;2.80;;;0.90;;
10894;SDS011;5500;49.886;8.074;2022-09-27T14:09:44;4.43;;;0.87;;
10894;SDS011;5500;49.886;8.074;2022-09-27T14:12:16;1.33;;;0.80;;
10894;SDS011;5500;49.886;8.074;2022-09-27T14:14:45;0.53;;;0.53;;
10894;SDS011;5500;49.886;8.074;2022-09-27T14:17:15;0.60;;;0.60;;
10894;SDS011;5500;49.886;8.074;2022-09-27T14:19:44;1.03;;;0.83;;
10894;SDS011;5500;49.886;8.074;2022-09-27T14:22:14;1.23;;;0.77;;
10894;SDS011;5500;49.886;8.074;2022-09-27T14:24:44;0.70;;;0.70;;
10894;SDS011;5500;49.886;8.074;2022-09-27T14:27:15;2.90;;;1.00;;
10894;SDS011;5500;49.886;8.074;2022-09-27T14:29:45;0.73;;;0.73;;
10894;SDS011;5500;49.886;8.074;2022-09-27T14:32:15;0.70;;;0.70;;
10894;SDS011;5500;49.886;8.074;2022-09-27T14:34:45;1.07;;;0.70;;
10894;SDS011;5500;49.886;8.074;2022-09-27T14:37:17;1.60;;;0.70;;
10894;SDS011;5500;49.886;8.074;2022-09-27T14:39:52;2.40;;;0.97;;
10894;SDS011;5500;49.886;8.074;2022-09-27T14:42:21;2.07;;;1.23;;
10894;SDS011;5500;49.886;8.074;2022-09-27T14:44:51;2.63;;;1.77;;
10894;SDS011;5500;49.886;8.074;2022-09-27T14:47:20;1.43;;;1.33;;
10894;SDS011;5500;49.886;8.074;2022-09-27T14:49:52;1.63;;;1.07;;
10894;SDS011;5500;49.886;8.074;2022-09-27T14:52:22;1.47;;;0.90;;
10894;SDS011;5500;49.886;8.074;2022-09-27T14:54:57;0.73;;;0.73;;
10894;SDS011;5500;49.886;8.074;2022-09-27T14:57:25;1.80;;;1.10;;
10894;SDS011;5500;49.886;8.074;2022-09-27T14:59:55;1.37;;;1.00;;
10894;SDS011;5500;49.886;8.074;2022-09-27T15:02:24;1.70;;;1.10;;
10894;SDS011;5500;49.886;8.074;2022-09-27T15:04:55;1.87;;;1.13;;
10894;SDS011;5500;49.886;8.074;2022-09-27T15:07:22;1.13;;;0.90;;
10894;SDS011;5500;49.886;8.074;2022-09-27T15:09:50;0.57;;;0.57;;
10894;SDS011;5500;49.886;8.074;2022-09-27T15:12:21;0.67;;;0.67;;
10894;SDS011;5500;49.886;8.074;2022-09-27T15:14:52;0.97;;;0.90;;
10894;SDS011;5500;49.886;8.074;2022-09-27T15:17:23;1.63;;;0.90;;
10894;SDS011;5500;49.886;8.074;2022-09-27T15:19:56;0.60;;;0.60;;
10894;SDS011;5500;49.886;8.074;2022-09-27T15:22:34;0.70;;;0.70;;
10894;SDS011;5500;49.886;8.074;2022-09-27T15:25:06;1.43;;;0.57;;
10894;SDS011;5500;49.886;8.074;2022-09-27T15:27:45;1.80;;;0.70;;
10894;SDS011;5500;49.886;8.074;2022-09-27T15:30:19;1.63;;;0.80;;
10894;SDS011;5500;49.886;8.074;2022-09-27T15:32:53;1.20;;;0.80;;
10894;SDS011;5500;49.886;8.074;2022-09-27T15:35:25;0.70;;;0.70;;
10894;SDS011;5500;49.886;8.074;2022-09-27T15:38:08;0.87;;;0.87;;
10894;SDS011;5500;49.886;8.074;2022-09-27T15:43:34;0.40;;;0.40;;